sensor_id;sensor_type;location;lat;lon;timestamp;P1;durP1;ratioP1;P2;durP2;ratioP2
38427;SDS011;24211;49.980;19.776;2023-09-12T00:01:06;7.25;;;4.55;;
38427;SDS011;24211;49.980;19.776;2023-09-12T00:03:35;8.90;;;4.75;;
38427;SDS011;24211;49.980;19.776;2023-09-12T00:06:02;8.32;;;4.50;;
38427;SDS011;24211;49.980;19.776;2023-09-12T00:08:31;10.43;;;4.55;;
38427;SDS011;24211;49.980;19.776;2023-09-12T00:11:05;7.78;;;4.47;;
38427;SDS011;24211;49.980;19.776;2023-09-12T00:13:38;8.48;;;4.57;;
38427;SDS011;24211;49.980;19.776;2023-09-12T00:16:07;8.07;;;4.75;;
38427;SDS011;24211;49.980;19.776;2023-09-12T00:18:38;8.32;;;4.57;;
38427;SDS011;24211;49.980;19.776;2023-09-12T00:21:05;9.02;;;4.85;;
38427;SDS011;24211;49.980;19.776;2023-09-12T00:23:33;9.18;;;4.57;;
38427;SDS011;24211;49.980;19.776;2023-09-12T00:26:01;9.32;;;4.70;;
38427;SDS011;24211;49.980;19.776;2023-09-12T00:28:28;8.35;;;4.72;;
38427;SDS011;24211;49.980;19.776;2023-09-12T00:30:55;7.68;;;5.05;;
38427;SDS011;24211;49.980;19.776;2023-09-12T00:33:23;7.72;;;4.78;;
38427;SDS011;24211;49.980;19.776;2023-09-12T00:35:51;7.53;;;4.68;;
38427;SDS011;24211;49.980;19.776;2023-09-12T00:38:19;6.90;;;4.35;;
38427;SDS011;24211;49.980;19.776;2023-09-12T00:40:46;7.78;;;4.68;;
38427;SDS011;24211;49.980;19.776;2023-09-12T00:43:15;8.05;;;4.68;;
38427;SDS011;24211;49.980;19.776;2023-09-12T00:45:43;7.90;;;4.40;;
38427;SDS011;24211;49.980;19.776;2023-09-12T00:48:11;7.60;;;5.00;;
38427;SDS011;24211;49.980;19.776;2023-09-12T00:50:40;7.65;;;4.80;;
38427;SDS011;24211;49.980;19.776;2023-09-12T00:53:10;8.85;;;4.55;;
38427;SDS011;24211;49.980;19.776;2023-09-12T00:55:38;7.80;;;4.70;;
38427;SDS011;24211;49.980;19.776;2023-09-12T00:58:12;7.32;;;4.68;;
38427;SDS011;24211;49.980;19.776;2023-09-12T01:00:41;8.77;;;4.78;;
38427;SDS011;24211;49.980;19.776;2023-09-12T01:03:08;8.55;;;4.55;;
38427;SDS011;24211;49.980;19.776;2023-09-12T01:05:36;9.07;;;4.50;;
38427;SDS011;24211;49.980;19.776;2023-09-12T01:08:04;6.90;;;4.60;;
38427;SDS011;24211;49.980;19.776;2023-09-12T01:10:31;6.72;;;4.18;;
38427;SDS011;24211;49.980;19.776;2023-09-12T01:12:59;6.55;;;4.35;;
38427;SDS011;24211;49.980;19.776;2023-09-12T01:15:28;6.95;;;4.38;;
38427;SDS011;24211;49.980;19.776;2023-09-12T01:17:56;5.90;;;4.10;;
38427;SDS011;24211;49.980;19.776;2023-09-12T01:20:26;7.38;;;4.45;;
38427;SDS011;24211;49.980;19.776;2023-09-12T01:29:45;5.82;;;3.88;;
38427;SDS011;24211;49.980;19.776;2023-09-12T01:32:15;6.88;;;4.00;;
38427;SDS011;24211;49.980;19.776;2023-09-12T01:34:46;7.30;;;4.32;;
38427;SDS011;24211;49.980;19.776;2023-09-12T01:37:14;6.28;;;4.40;;
38427;SDS011;24211;49.980;19.776;2023-09-12T01:39:42;7.15;;;4.10;;
38427;SDS011;24211;49.980;19.776;2023-09-12T01:42:13;9.63;;;4.18;;
38427;SDS011;24211;49.980;19.776;2023-09-12T01:44:44;6.88;;;4.20;;
38427;SDS011;24211;49.980;19.776;2023-09-12T01:47:15;6.60;;;4.10;;
38427;SDS011;24211;49.980;19.776;2023-09-12T01:49:45;6.25;;;3.92;;
38427;SDS011;24211;49.980;19.776;2023-09-12T01:52:18;7.03;;;4.07;;
38427;SDS011;24211;49.980;19.776;2023-09-12T01:54:46;5.93;;;3.83;;
38427;SDS011;24211;49.980;19.776;2023-09-12T01:57:17;5.95;;;3.80;;
38427;SDS011;24211;49.980;19.776;2023-09-12T01:59:48;5.93;;;3.90;;
38427;SDS011;24211;49.980;19.776;2023-09-12T02:02:16;6.20;;;4.10;;
38427;SDS011;24211;49.980;19.776;2023-09-12T02:07:38;6.15;;;3.85;;
38427;SDS011;24211;49.980;19.776;2023-09-12T02:10:08;5.82;;;3.88;;
38427;SDS011;24211;49.980;19.776;2023-09-12T02:12:36;6.32;;;4.20;;
38427;SDS011;24211;49.980;19.776;2023-09-12T02:15:04;7.15;;;4.20;;
38427;SDS011;24211;49.980;19.776;2023-09-12T02:17:32;6.82;;;4.20;;
38427;SDS011;24211;49.980;19.776;2023-09-12T02:19:59;6.60;;;4.15;;
38427;SDS011;24211;49.980;19.776;2023-09-12T02:22:26;6.65;;;4.22;;
38427;SDS011;24211;49.980;19.776;2023-09-12T02:24:54;6.28;;;4.03;;
38427;SDS011;24211;49.980;19.776;2023-09-12T02:27:21;7.38;;;4.18;;
38427;SDS011;24211;49.980;19.776;2023-09-12T02:29:48;6.40;;;4.50;;
38427;SDS011;24211;49.980;19.776;2023-09-12T02:32:15;6.50;;;3.90;;
38427;SDS011;24211;49.980;19.776;2023-09-12T02:34:43;6.07;;;3.80;;
38427;SDS011;24211;49.980;19.776;2023-09-12T02:37:10;6.22;;;4.00;;
38427;SDS011;24211;49.980;19.776;2023-09-12T02:39:37;8.30;;;4.22;;
38427;SDS011;24211;49.980;19.776;2023-09-12T02:42:04;6.90;;;4.30;;
38427;SDS011;24211;49.980;19.776;2023-09-12T02:44:32;7.00;;;4.25;;
38427;SDS011;24211;49.980;19.776;2023-09-12T02:47:00;5.65;;;3.90;;
38427;SDS011;24211;49.980;19.776;2023-09-12T02:49:28;6.20;;;4.15;;
38427;SDS011;24211;49.980;19.776;2023-09-12T02:51:56;5.75;;;3.85;;
38427;SDS011;24211;49.980;19.776;2023-09-12T02:54:23;6.55;;;3.80;;
38427;SDS011;24211;49.980;19.776;2023-09-12T02:56:50;6.03;;;3.83;;
38427;SDS011;24211;49.980;19.776;2023-09-12T02:59:17;5.75;;;3.80;;
38427;SDS011;24211;49.980;19.776;2023-09-12T03:01:45;5.90;;;3.72;;
38427;SDS011;24211;49.980;19.776;2023-09-12T03:04:13;5.45;;;3.58;;
38427;SDS011;24211;49.980;19.776;2023-09-12T03:06:40;6.95;;;4.05;;
38427;SDS011;24211;49.980;19.776;2023-09-12T03:09:07;6.40;;;4.10;;
38427;SDS011;24211;49.980;19.776;2023-09-12T03:11:34;8.82;;;4.63;;
38427;SDS011;24211;49.980;19.776;2023-09-12T03:14:02;8.10;;;4.32;;
38427;SDS011;24211;49.980;19.776;2023-09-12T03:16:29;6.65;;;3.97;;
38427;SDS011;24211;49.980;19.776;2023-09-12T03:18:59;6.72;;;4.20;;
38427;SDS011;24211;49.980;19.776;2023-09-12T03:21:27;6.45;;;3.95;;
38427;SDS011;24211;49.980;19.776;2023-09-12T03:23:55;5.95;;;3.88;;
38427;SDS011;24211;49.980;19.776;2023-09-12T03:26:22;6.45;;;4.20;;
38427;SDS011;24211;49.980;19.776;2023-09-12T03:28:49;6.72;;;4.20;;
38427;SDS011;24211;49.980;19.776;2023-09-12T03:31:17;6.72;;;4.00;;
38427;SDS011;24211;49.980;19.776;2023-09-12T03:33:45;7.82;;;4.30;;
38427;SDS011;24211;49.980;19.776;2023-09-12T03:36:17;6.53;;;4.15;;
38427;SDS011;24211;49.980;19.776;2023-09-12T03:38:45;6.82;;;4.22;;
38427;SDS011;24211;49.980;19.776;2023-09-12T03:41:12;7.00;;;4.75;;
38427;SDS011;24211;49.980;19.776;2023-09-12T03:43:40;6.20;;;4.03;;
38427;SDS011;24211;49.980;19.776;2023-09-12T03:46:07;7.65;;;4.55;;
38427;SDS011;24211;49.980;19.776;2023-09-12T03:48:35;6.70;;;4.30;;
38427;SDS011;24211;49.980;19.776;2023-09-12T03:51:03;8.15;;;4.70;;
38427;SDS011;24211;49.980;19.776;2023-09-12T03:53:31;7.43;;;4.47;;
38427;SDS011;24211;49.980;19.776;2023-09-12T03:55:58;7.40;;;4.43;;
38427;SDS011;24211;49.980;19.776;2023-09-12T03:58:28;6.82;;;4.35;;
38427;SDS011;24211;49.980;19.776;2023-09-12T04:00:55;7.28;;;4.43;;
38427;SDS011;24211;49.980;19.776;2023-09-12T04:03:22;6.85;;;4.68;;
38427;SDS011;24211;49.980;19.776;2023-09-12T04:05:50;7.55;;;4.80;;
38427;SDS011;24211;49.980;19.776;2023-09-12T04:08:18;7.22;;;4.30;;
38427;SDS011;24211;49.980;19.776;2023-09-12T04:10:45;7.32;;;4.50;;
38427;SDS011;24211;49.980;19.776;2023-09-12T04:13:12;7.35;;;4.57;;
38427;SDS011;24211;49.980;19.776;2023-09-12T04:15:39;8.23;;;5.10;;
38427;SDS011;24211;49.980;19.776;2023-09-12T04:18:07;7.53;;;4.63;;
38427;SDS011;24211;49.980;19.776;2023-09-12T04:20:34;7.45;;;4.63;;
38427;SDS011;24211;49.980;19.776;2023-09-12T04:23:02;8.65;;;4.70;;
38427;SDS011;24211;49.980;19.776;2023-09-12T04:25:30;8.35;;;4.90;;
38427;SDS011;24211;49.980;19.776;2023-09-12T04:27:58;8.07;;;4.97;;
38427;SDS011;24211;49.980;19.776;2023-09-12T04:30:25;7.85;;;4.60;;
38427;SDS011;24211;49.980;19.776;2023-09-12T04:32:54;6.65;;;4.57;;
38427;SDS011;24211;49.980;19.776;2023-09-12T04:35:21;6.72;;;4.28;;
38427;SDS011;24211;49.980;19.776;2023-09-12T04:37:49;7.25;;;4.70;;
38427;SDS011;24211;49.980;19.776;2023-09-12T04:40:16;8.05;;;4.80;;
38427;SDS011;24211;49.980;19.776;2023-09-12T04:42:44;6.93;;;4.60;;
38427;SDS011;24211;49.980;19.776;2023-09-12T04:45:12;7.40;;;4.82;;
38427;SDS011;24211;49.980;19.776;2023-09-12T04:47:39;7.50;;;4.65;;
38427;SDS011;24211;49.980;19.776;2023-09-12T04:50:07;7.25;;;4.72;;
38427;SDS011;24211;49.980;19.776;2023-09-12T04:52:35;7.65;;;4.63;;
38427;SDS011;24211;49.980;19.776;2023-09-12T04:55:02;7.10;;;4.68;;
38427;SDS011;24211;49.980;19.776;2023-09-12T04:57:30;7.30;;;4.78;;
38427;SDS011;24211;49.980;19.776;2023-09-12T04:59:58;7.40;;;4.75;;
38427;SDS011;24211;49.980;19.776;2023-09-12T05:02:25;7.47;;;4.85;;
38427;SDS011;24211;49.980;19.776;2023-09-12T05:04:53;8.27;;;4.97;;
38427;SDS011;24211;49.980;19.776;2023-09-12T05:07:22;7.45;;;4.75;;
38427;SDS011;24211;49.980;19.776;2023-09-12T05:09:49;7.85;;;4.72;;
38427;SDS011;24211;49.980;19.776;2023-09-12T05:12:17;7.05;;;4.68;;
38427;SDS011;24211;49.980;19.776;2023-09-12T05:14:45;6.68;;;4.50;;
38427;SDS011;24211;49.980;19.776;2023-09-12T05:17:12;7.32;;;4.80;;
38427;SDS011;24211;49.980;19.776;2023-09-12T05:19:39;7.32;;;4.85;;
38427;SDS011;24211;49.980;19.776;2023-09-12T05:22:07;7.35;;;4.85;;
38427;SDS011;24211;49.980;19.776;2023-09-12T05:24:34;7.10;;;4.50;;
38427;SDS011;24211;49.980;19.776;2023-09-12T05:27:02;8.00;;;5.10;;
38427;SDS011;24211;49.980;19.776;2023-09-12T05:29:30;7.72;;;5.07;;
38427;SDS011;24211;49.980;19.776;2023-09-12T05:31:57;7.43;;;4.93;;
38427;SDS011;24211;49.980;19.776;2023-09-12T05:34:25;7.15;;;4.90;;
38427;SDS011;24211;49.980;19.776;2023-09-12T05:36:52;7.68;;;5.20;;
38427;SDS011;24211;49.980;19.776;2023-09-12T05:39:19;8.45;;;5.00;;
38427;SDS011;24211;49.980;19.776;2023-09-12T05:41:47;7.78;;;5.10;;
38427;SDS011;24211;49.980;19.776;2023-09-12T05:44:15;9.05;;;5.68;;
38427;SDS011;24211;49.980;19.776;2023-09-12T05:46:45;7.75;;;5.30;;
38427;SDS011;24211;49.980;19.776;2023-09-12T05:49:14;8.20;;;5.40;;
38427;SDS011;24211;49.980;19.776;2023-09-12T05:51:43;8.85;;;5.60;;
38427;SDS011;24211;49.980;19.776;2023-09-12T05:54:10;8.43;;;5.38;;
38427;SDS011;24211;49.980;19.776;2023-09-12T05:56:40;8.77;;;5.70;;
38427;SDS011;24211;49.980;19.776;2023-09-12T05:59:07;10.63;;;5.70;;
38427;SDS011;24211;49.980;19.776;2023-09-12T06:01:35;8.80;;;5.57;;
38427;SDS011;24211;49.980;19.776;2023-09-12T06:04:02;8.50;;;5.68;;
38427;SDS011;24211;49.980;19.776;2023-09-12T06:06:31;9.10;;;5.78;;
38427;SDS011;24211;49.980;19.776;2023-09-12T06:08:58;8.57;;;5.63;;
38427;SDS011;24211;49.980;19.776;2023-09-12T06:11:26;9.70;;;6.25;;
38427;SDS011;24211;49.980;19.776;2023-09-12T06:13:53;9.50;;;5.95;;
38427;SDS011;24211;49.980;19.776;2023-09-12T06:16:21;7.97;;;5.50;;
38427;SDS011;24211;49.980;19.776;2023-09-12T06:18:48;8.85;;;5.88;;
38427;SDS011;24211;49.980;19.776;2023-09-12T06:21:17;8.93;;;5.70;;
38427;SDS011;24211;49.980;19.776;2023-09-12T06:23:44;8.80;;;5.57;;
38427;SDS011;24211;49.980;19.776;2023-09-12T06:26:12;8.05;;;5.20;;
38427;SDS011;24211;49.980;19.776;2023-09-12T06:28:39;8.18;;;5.72;;
38427;SDS011;24211;49.980;19.776;2023-09-12T06:31:08;9.65;;;5.90;;
38427;SDS011;24211;49.980;19.776;2023-09-12T06:33:37;11.43;;;6.80;;
38427;SDS011;24211;49.980;19.776;2023-09-12T06:36:05;9.27;;;6.40;;
38427;SDS011;24211;49.980;19.776;2023-09-12T06:38:33;9.23;;;6.25;;
38427;SDS011;24211;49.980;19.776;2023-09-12T06:41:02;9.98;;;6.10;;
38427;SDS011;24211;49.980;19.776;2023-09-12T06:43:30;9.80;;;6.53;;
38427;SDS011;24211;49.980;19.776;2023-09-12T06:45:57;9.32;;;6.38;;
38427;SDS011;24211;49.980;19.776;2023-09-12T06:48:25;8.95;;;6.00;;
38427;SDS011;24211;49.980;19.776;2023-09-12T06:50:53;9.48;;;6.18;;
38427;SDS011;24211;49.980;19.776;2023-09-12T06:53:21;9.13;;;5.72;;
38427;SDS011;24211;49.980;19.776;2023-09-12T06:55:48;8.85;;;5.82;;
38427;SDS011;24211;49.980;19.776;2023-09-12T06:58:15;10.77;;;7.10;;
38427;SDS011;24211;49.980;19.776;2023-09-12T07:00:43;9.38;;;6.10;;
38427;SDS011;24211;49.980;19.776;2023-09-12T07:03:10;9.95;;;6.38;;
38427;SDS011;24211;49.980;19.776;2023-09-12T07:05:42;9.48;;;5.75;;
38427;SDS011;24211;49.980;19.776;2023-09-12T07:08:10;9.15;;;6.25;;
38427;SDS011;24211;49.980;19.776;2023-09-12T07:10:43;10.10;;;6.22;;
38427;SDS011;24211;49.980;19.776;2023-09-12T07:13:12;8.20;;;6.00;;
38427;SDS011;24211;49.980;19.776;2023-09-12T07:15:39;10.32;;;6.18;;
38427;SDS011;24211;49.980;19.776;2023-09-12T07:18:07;10.13;;;6.55;;
38427;SDS011;24211;49.980;19.776;2023-09-12T07:20:34;9.70;;;6.45;;
38427;SDS011;24211;49.980;19.776;2023-09-12T07:23:02;9.80;;;6.15;;
38427;SDS011;24211;49.980;19.776;2023-09-12T07:25:29;9.25;;;6.03;;
38427;SDS011;24211;49.980;19.776;2023-09-12T07:27:57;9.10;;;6.07;;
38427;SDS011;24211;49.980;19.776;2023-09-12T07:30:24;8.82;;;6.20;;
38427;SDS011;24211;49.980;19.776;2023-09-12T07:32:51;10.13;;;6.63;;
38427;SDS011;24211;49.980;19.776;2023-09-12T07:35:19;11.27;;;7.28;;
38427;SDS011;24211;49.980;19.776;2023-09-12T07:37:47;10.20;;;6.55;;
38427;SDS011;24211;49.980;19.776;2023-09-12T07:40:14;9.75;;;6.07;;
38427;SDS011;24211;49.980;19.776;2023-09-12T07:42:41;9.05;;;6.22;;
38427;SDS011;24211;49.980;19.776;2023-09-12T07:45:09;8.48;;;5.65;;
38427;SDS011;24211;49.980;19.776;2023-09-12T07:47:36;8.75;;;6.13;;
38427;SDS011;24211;49.980;19.776;2023-09-12T07:50:04;8.60;;;5.88;;
38427;SDS011;24211;49.980;19.776;2023-09-12T07:52:33;8.57;;;5.82;;
38427;SDS011;24211;49.980;19.776;2023-09-12T07:55:02;7.85;;;5.60;;
38427;SDS011;24211;49.980;19.776;2023-09-12T07:57:30;9.05;;;6.10;;
38427;SDS011;24211;49.980;19.776;2023-09-12T07:59:58;10.25;;;5.63;;
38427;SDS011;24211;49.980;19.776;2023-09-12T08:02:27;9.48;;;5.88;;
38427;SDS011;24211;49.980;19.776;2023-09-12T08:04:54;9.38;;;5.47;;
38427;SDS011;24211;49.980;19.776;2023-09-12T08:07:22;9.15;;;5.50;;
38427;SDS011;24211;49.980;19.776;2023-09-12T08:09:53;9.25;;;5.88;;
38427;SDS011;24211;49.980;19.776;2023-09-12T08:12:26;9.10;;;5.47;;
38427;SDS011;24211;49.980;19.776;2023-09-12T08:14:54;7.85;;;5.50;;
38427;SDS011;24211;49.980;19.776;2023-09-12T08:17:22;8.32;;;5.07;;
38427;SDS011;24211;49.980;19.776;2023-09-12T08:19:50;8.95;;;5.63;;
38427;SDS011;24211;49.980;19.776;2023-09-12T08:22:17;8.27;;;5.35;;
38427;SDS011;24211;49.980;19.776;2023-09-12T08:24:45;7.85;;;5.53;;
38427;SDS011;24211;49.980;19.776;2023-09-12T08:27:13;9.10;;;5.50;;
38427;SDS011;24211;49.980;19.776;2023-09-12T08:29:40;7.95;;;5.47;;
38427;SDS011;24211;49.980;19.776;2023-09-12T08:32:08;10.57;;;5.47;;
38427;SDS011;24211;49.980;19.776;2023-09-12T08:34:36;7.00;;;5.35;;
38427;SDS011;24211;49.980;19.776;2023-09-12T08:37:03;7.95;;;5.22;;
38427;SDS011;24211;49.980;19.776;2023-09-12T08:39:39;7.60;;;5.28;;
38427;SDS011;24211;49.980;19.776;2023-09-12T08:42:13;8.10;;;5.38;;
38427;SDS011;24211;49.980;19.776;2023-09-12T08:44:42;7.40;;;5.18;;
38427;SDS011;24211;49.980;19.776;2023-09-12T08:47:11;8.88;;;5.65;;
38427;SDS011;24211;49.980;19.776;2023-09-12T08:49:41;7.17;;;5.20;;
38427;SDS011;24211;49.980;19.776;2023-09-12T08:52:09;7.13;;;5.35;;
38427;SDS011;24211;49.980;19.776;2023-09-12T08:54:37;8.52;;;5.53;;
38427;SDS011;24211;49.980;19.776;2023-09-12T08:57:04;7.90;;;5.40;;
38427;SDS011;24211;49.980;19.776;2023-09-12T08:59:34;8.25;;;5.95;;
38427;SDS011;24211;49.980;19.776;2023-09-12T09:02:01;7.35;;;5.30;;
38427;SDS011;24211;49.980;19.776;2023-09-12T09:04:34;7.65;;;5.30;;
38427;SDS011;24211;49.980;19.776;2023-09-12T09:07:02;9.52;;;5.43;;
38427;SDS011;24211;49.980;19.776;2023-09-12T09:09:31;7.55;;;5.38;;
38427;SDS011;24211;49.980;19.776;2023-09-12T09:11:59;7.20;;;5.07;;
38427;SDS011;24211;49.980;19.776;2023-09-12T09:14:27;6.90;;;5.35;;
38427;SDS011;24211;49.980;19.776;2023-09-12T09:16:57;7.72;;;5.50;;
38427;SDS011;24211;49.980;19.776;2023-09-12T09:19:47;6.82;;;5.05;;
38427;SDS011;24211;49.980;19.776;2023-09-12T09:22:12;8.52;;;5.55;;
38427;SDS011;24211;49.980;19.776;2023-09-12T09:24:40;7.10;;;5.15;;
38427;SDS011;24211;49.980;19.776;2023-09-12T09:27:07;7.00;;;5.20;;
38427;SDS011;24211;49.980;19.776;2023-09-12T09:29:45;9.25;;;5.63;;
38427;SDS011;24211;49.980;19.776;2023-09-12T09:32:18;7.65;;;5.32;;
38427;SDS011;24211;49.980;19.776;2023-09-12T09:34:48;8.60;;;5.50;;
38427;SDS011;24211;49.980;19.776;2023-09-12T09:37:16;7.25;;;5.05;;
38427;SDS011;24211;49.980;19.776;2023-09-12T09:39:46;8.35;;;5.57;;
38427;SDS011;24211;49.980;19.776;2023-09-12T09:42:19;8.88;;;5.18;;
38427;SDS011;24211;49.980;19.776;2023-09-12T09:44:47;8.02;;;5.43;;
38427;SDS011;24211;49.980;19.776;2023-09-12T09:47:15;9.63;;;5.53;;
38427;SDS011;24211;49.980;19.776;2023-09-12T09:49:46;7.47;;;4.97;;
38427;SDS011;24211;49.980;19.776;2023-09-12T09:52:13;9.85;;;5.28;;
38427;SDS011;24211;49.980;19.776;2023-09-12T09:54:44;7.95;;;5.20;;
38427;SDS011;24211;49.980;19.776;2023-09-12T09:57:12;8.18;;;5.22;;
38427;SDS011;24211;49.980;19.776;2023-09-12T09:59:40;7.18;;;5.15;;
38427;SDS011;24211;49.980;19.776;2023-09-12T10:02:07;8.07;;;5.20;;
38427;SDS011;24211;49.980;19.776;2023-09-12T10:04:46;7.10;;;4.90;;
38427;SDS011;24211;49.980;19.776;2023-09-12T10:07:25;8.30;;;4.55;;
38427;SDS011;24211;49.980;19.776;2023-09-12T10:09:54;7.18;;;4.80;;
38427;SDS011;24211;49.980;19.776;2023-09-12T10:12:24;7.35;;;4.78;;
38427;SDS011;24211;49.980;19.776;2023-09-12T10:14:52;6.55;;;4.88;;
38427;SDS011;24211;49.980;19.776;2023-09-12T10:17:20;7.45;;;5.07;;
38427;SDS011;24211;49.980;19.776;2023-09-12T10:19:57;6.63;;;4.78;;
38427;SDS011;24211;49.980;19.776;2023-09-12T10:22:48;7.82;;;4.90;;
38427;SDS011;24211;49.980;19.776;2023-09-12T10:25:37;7.70;;;4.88;;
38427;SDS011;24211;49.980;19.776;2023-09-12T10:28:06;6.20;;;4.53;;
38427;SDS011;24211;49.980;19.776;2023-09-12T10:30:34;6.63;;;4.85;;
38427;SDS011;24211;49.980;19.776;2023-09-12T10:33:03;6.65;;;4.60;;
38427;SDS011;24211;49.980;19.776;2023-09-12T10:35:33;6.75;;;4.50;;
38427;SDS011;24211;49.980;19.776;2023-09-12T10:38:02;6.05;;;4.38;;
38427;SDS011;24211;49.980;19.776;2023-09-12T10:40:32;6.40;;;4.35;;
38427;SDS011;24211;49.980;19.776;2023-09-12T10:43:09;5.97;;;4.40;;
38427;SDS011;24211;49.980;19.776;2023-09-12T10:45:39;5.68;;;4.40;;
38427;SDS011;24211;49.980;19.776;2023-09-12T10:48:09;6.65;;;4.43;;
38427;SDS011;24211;49.980;19.776;2023-09-12T10:50:38;6.70;;;4.32;;
38427;SDS011;24211;49.980;19.776;2023-09-12T10:53:13;5.40;;;3.80;;
38427;SDS011;24211;49.980;19.776;2023-09-12T10:55:42;5.25;;;3.95;;
38427;SDS011;24211;49.980;19.776;2023-09-12T10:58:26;6.80;;;4.10;;
38427;SDS011;24211;49.980;19.776;2023-09-12T11:01:21;5.72;;;4.05;;
38427;SDS011;24211;49.980;19.776;2023-09-12T11:03:52;6.38;;;4.15;;
38427;SDS011;24211;49.980;19.776;2023-09-12T11:06:20;6.03;;;4.25;;
38427;SDS011;24211;49.980;19.776;2023-09-12T11:09:29;5.40;;;4.00;;
38427;SDS011;24211;49.980;19.776;2023-09-12T11:12:02;6.40;;;4.35;;
38427;SDS011;24211;49.980;19.776;2023-09-12T11:25:01;5.25;;;3.50;;
38427;SDS011;24211;49.980;19.776;2023-09-12T11:27:43;6.60;;;3.78;;
38427;SDS011;24211;49.980;19.776;2023-09-12T11:30:27;6.22;;;3.75;;
38427;SDS011;24211;49.980;19.776;2023-09-12T11:32:58;5.60;;;3.85;;
38427;SDS011;24211;49.980;19.776;2023-09-12T11:35:29;6.60;;;3.60;;
38427;SDS011;24211;49.980;19.776;2023-09-12T11:38:02;5.35;;;3.58;;
38427;SDS011;24211;49.980;19.776;2023-09-12T11:45:29;5.40;;;3.70;;
38427;SDS011;24211;49.980;19.776;2023-09-12T11:47:59;5.50;;;3.63;;
38427;SDS011;24211;49.980;19.776;2023-09-12T11:50:30;6.13;;;3.70;;
38427;SDS011;24211;49.980;19.776;2023-09-12T11:53:03;5.32;;;3.78;;
38427;SDS011;24211;49.980;19.776;2023-09-12T11:55:54;5.65;;;3.60;;
38427;SDS011;24211;49.980;19.776;2023-09-12T11:58:24;6.05;;;3.47;;
38427;SDS011;24211;49.980;19.776;2023-09-12T12:00:55;5.70;;;3.67;;
38427;SDS011;24211;49.980;19.776;2023-09-12T12:03:26;4.97;;;3.30;;
38427;SDS011;24211;49.980;19.776;2023-09-12T12:06:04;5.35;;;3.70;;
38427;SDS011;24211;49.980;19.776;2023-09-12T12:08:33;6.70;;;3.83;;
38427;SDS011;24211;49.980;19.776;2023-09-12T12:11:01;5.32;;;3.88;;
38427;SDS011;24211;49.980;19.776;2023-09-12T12:13:28;5.85;;;3.50;;
38427;SDS011;24211;49.980;19.776;2023-09-12T12:16:14;5.90;;;3.58;;
38427;SDS011;24211;49.980;19.776;2023-09-12T12:18:45;4.97;;;3.55;;
38427;SDS011;24211;49.980;19.776;2023-09-12T12:21:12;4.78;;;3.55;;
38427;SDS011;24211;49.980;19.776;2023-09-12T12:23:39;5.47;;;3.70;;
38427;SDS011;24211;49.980;19.776;2023-09-12T12:26:08;5.50;;;3.72;;
38427;SDS011;24211;49.980;19.776;2023-09-12T12:28:36;4.88;;;3.60;;
38427;SDS011;24211;49.980;19.776;2023-09-12T12:31:03;4.93;;;3.55;;
38427;SDS011;24211;49.980;19.776;2023-09-12T12:33:32;5.60;;;3.63;;
38427;SDS011;24211;49.980;19.776;2023-09-12T12:36:19;5.05;;;3.60;;
38427;SDS011;24211;49.980;19.776;2023-09-12T12:38:48;5.55;;;3.90;;
38427;SDS011;24211;49.980;19.776;2023-09-12T12:41:25;6.07;;;3.80;;
38427;SDS011;24211;49.980;19.776;2023-09-12T12:44:15;6.05;;;3.83;;
38427;SDS011;24211;49.980;19.776;2023-09-12T12:49:38;6.90;;;3.63;;
38427;SDS011;24211;49.980;19.776;2023-09-12T12:56:21;5.75;;;3.70;;
38427;SDS011;24211;49.980;19.776;2023-09-12T12:58:59;6.50;;;3.83;;
38427;SDS011;24211;49.980;19.776;2023-09-12T13:01:40;6.78;;;4.03;;
38427;SDS011;24211;49.980;19.776;2023-09-12T13:04:08;6.32;;;3.83;;
38427;SDS011;24211;49.980;19.776;2023-09-12T13:06:39;6.38;;;4.00;;
38427;SDS011;24211;49.980;19.776;2023-09-12T13:12:00;5.43;;;3.60;;
38427;SDS011;24211;49.980;19.776;2023-09-12T13:14:27;8.32;;;4.10;;
38427;SDS011;24211;49.980;19.776;2023-09-12T13:23:01;6.47;;;3.97;;
38427;SDS011;24211;49.980;19.776;2023-09-12T13:25:28;5.55;;;3.80;;
38427;SDS011;24211;49.980;19.776;2023-09-12T13:33:53;5.75;;;3.90;;
38427;SDS011;24211;49.980;19.776;2023-09-12T13:36:21;5.82;;;3.80;;
38427;SDS011;24211;49.980;19.776;2023-09-12T13:38:48;5.78;;;3.90;;
38427;SDS011;24211;49.980;19.776;2023-09-12T13:41:18;5.05;;;3.90;;
38427;SDS011;24211;49.980;19.776;2023-09-12T13:43:46;6.65;;;3.95;;
38427;SDS011;24211;49.980;19.776;2023-09-12T13:46:31;7.38;;;4.03;;
38427;SDS011;24211;49.980;19.776;2023-09-12T13:53:32;6.82;;;4.10;;
38427;SDS011;24211;49.980;19.776;2023-09-12T13:55:59;5.25;;;4.00;;
38427;SDS011;24211;49.980;19.776;2023-09-12T13:58:28;5.78;;;4.05;;
38427;SDS011;24211;49.980;19.776;2023-09-12T14:01:05;5.25;;;3.78;;
38427;SDS011;24211;49.980;19.776;2023-09-12T14:03:33;5.20;;;4.10;;
38427;SDS011;24211;49.980;19.776;2023-09-12T14:06:02;5.95;;;4.20;;
38427;SDS011;24211;49.980;19.776;2023-09-12T14:11:55;6.90;;;4.28;;
38427;SDS011;24211;49.980;19.776;2023-09-12T14:18:00;5.75;;;4.20;;
38427;SDS011;24211;49.980;19.776;2023-09-12T14:23:46;6.60;;;3.88;;
38427;SDS011;24211;49.980;19.776;2023-09-12T14:29:07;6.28;;;4.00;;
38427;SDS011;24211;49.980;19.776;2023-09-12T14:31:35;6.97;;;3.88;;
38427;SDS011;24211;49.980;19.776;2023-09-12T14:34:05;5.70;;;3.97;;
38427;SDS011;24211;49.980;19.776;2023-09-12T14:39:28;6.38;;;4.18;;
38427;SDS011;24211;49.980;19.776;2023-09-12T14:41:55;5.60;;;4.18;;
38427;SDS011;24211;49.980;19.776;2023-09-12T14:44:24;7.00;;;4.22;;
38427;SDS011;24211;49.980;19.776;2023-09-12T14:47:06;5.57;;;4.15;;
38427;SDS011;24211;49.980;19.776;2023-09-12T14:49:33;7.63;;;4.55;;
38427;SDS011;24211;49.980;19.776;2023-09-12T14:53:19;7.40;;;4.60;;
38427;SDS011;24211;49.980;19.776;2023-09-12T14:55:48;6.60;;;4.82;;
38427;SDS011;24211;49.980;19.776;2023-09-12T14:58:15;7.13;;;4.45;;
38427;SDS011;24211;49.980;19.776;2023-09-12T15:03:35;6.50;;;4.50;;
38427;SDS011;24211;49.980;19.776;2023-09-12T15:06:05;6.78;;;4.50;;
38427;SDS011;24211;49.980;19.776;2023-09-12T15:08:35;7.30;;;4.53;;
38427;SDS011;24211;49.980;19.776;2023-09-12T15:11:03;5.93;;;4.47;;
38427;SDS011;24211;49.980;19.776;2023-09-12T15:13:35;6.30;;;4.28;;
38427;SDS011;24211;49.980;19.776;2023-09-12T15:16:06;7.10;;;4.22;;
38427;SDS011;24211;49.980;19.776;2023-09-12T15:21:27;5.82;;;4.22;;
38427;SDS011;24211;49.980;19.776;2023-09-12T15:23:54;8.15;;;4.93;;
38427;SDS011;24211;49.980;19.776;2023-09-12T15:26:23;7.10;;;4.50;;
38427;SDS011;24211;49.980;19.776;2023-09-12T15:28:50;6.03;;;4.32;;
38427;SDS011;24211;49.980;19.776;2023-09-12T15:31:18;5.72;;;4.18;;
38427;SDS011;24211;49.980;19.776;2023-09-12T15:33:45;6.47;;;4.47;;
38427;SDS011;24211;49.980;19.776;2023-09-12T15:36:13;6.43;;;4.05;;
38427;SDS011;24211;49.980;19.776;2023-09-12T15:38:40;6.00;;;4.30;;
38427;SDS011;24211;49.980;19.776;2023-09-12T15:41:08;7.53;;;4.22;;
38427;SDS011;24211;49.980;19.776;2023-09-12T15:43:35;6.28;;;3.90;;
38427;SDS011;24211;49.980;19.776;2023-09-12T15:46:03;6.07;;;4.47;;
38427;SDS011;24211;49.980;19.776;2023-09-12T15:48:30;6.05;;;4.05;;
38427;SDS011;24211;49.980;19.776;2023-09-12T15:51:01;7.38;;;4.40;;
38427;SDS011;24211;49.980;19.776;2023-09-12T15:53:34;6.38;;;4.18;;
38427;SDS011;24211;49.980;19.776;2023-09-12T15:59:19;6.35;;;4.28;;
38427;SDS011;24211;49.980;19.776;2023-09-12T16:04:39;6.00;;;4.38;;
38427;SDS011;24211;49.980;19.776;2023-09-12T16:07:07;5.97;;;4.30;;